Sterling, Idaho
Current Conditions -  °F | °C
As of 5:53 PM on Thursday 27 Nov 2014 (Local Time) from KPIH Reporting Station
Clear Clear  
Wind Chill: 52°   Ceiling: Unl
Heat Index: 52°   Visibility: 10mi
Dew Point: 26°   Wind: 16mph
Humidity: 37%   Direction: 180°S
Pressure: 30.1"   Gusts: NA
Location:  43.1849°N, 112.825°W
Report Text: KPIH 280053Z 18014KT 10SM CLR 11/M03 A3010 RMK AO2 SLP177 T01111033
Loading
Personal Weather Stations






























Interactive Weather Map New forecast layout! Learn more

10-Day Weather Forecast

Advertisements
Track Severe Weather on mobile